createdAt,value
2019-01-09T00:00:22.798Z,2.80
2019-01-09T00:02:51.199Z,2.80
2019-01-09T00:05:28.265Z,2.70
2019-01-09T00:07:53.528Z,2.70
2019-01-09T00:10:22.028Z,2.70
2019-01-09T00:12:50.535Z,2.70
2019-01-09T00:15:18.943Z,2.80
2019-01-09T00:17:47.347Z,2.80
2019-01-09T00:20:18.834Z,2.80
2019-01-09T00:22:47.242Z,2.80
2019-01-09T00:25:15.681Z,2.80
2019-01-09T00:27:44.100Z,2.80
2019-01-09T00:30:12.551Z,2.80
2019-01-09T00:32:41.046Z,2.80
2019-01-09T00:35:09.476Z,2.80
2019-01-09T00:37:37.883Z,2.80
2019-01-09T00:40:07.944Z,2.80
2019-01-09T00:42:47.579Z,2.70
2019-01-09T00:45:16.036Z,2.80
2019-01-09T00:47:44.472Z,2.80
2019-01-09T00:50:13.377Z,2.80
2019-01-09T00:52:41.921Z,2.70
2019-01-09T00:55:11.691Z,2.80
2019-01-09T00:57:40.137Z,2.80
2019-01-09T01:00:14.250Z,2.80
2019-01-09T01:03:02.494Z,2.90
2019-01-09T01:05:46.248Z,2.90
2019-01-09T01:08:35.479Z,2.90
2019-01-09T01:11:23.560Z,2.90
2019-01-09T01:14:10.051Z,2.80
2019-01-09T01:16:57.919Z,2.70
2019-01-09T01:19:49.292Z,2.70
2019-01-09T01:22:55.868Z,2.60
2019-01-09T01:25:41.959Z,2.60
2019-01-09T01:28:13.448Z,2.60
2019-01-09T01:30:56.617Z,2.50
2019-01-09T01:33:33.986Z,2.50
2019-01-09T01:36:26.091Z,2.50
2019-01-09T01:39:06.435Z,2.50
2019-01-09T01:41:44.031Z,2.50
2019-01-09T01:44:18.335Z,2.50
2019-01-09T01:47:14.281Z,2.50
2019-01-09T01:50:00.955Z,2.50
2019-01-09T01:52:35.477Z,2.60
2019-01-09T01:55:42.025Z,2.60
2019-01-09T01:58:22.385Z,2.60
2019-01-09T02:01:11.931Z,2.60
2019-01-09T02:04:16.711Z,2.60
2019-01-09T02:07:02.726Z,2.60
2019-01-09T02:09:39.945Z,2.60
2019-01-09T02:12:17.150Z,2.60
2019-01-09T02:15:00.398Z,2.60
2019-01-09T02:17:40.674Z,2.50
2019-01-09T02:20:14.644Z,2.30
2019-01-09T02:23:08.172Z,2.20
2019-01-09T02:25:51.421Z,2.10
2019-01-09T02:28:46.915Z,2.10
2019-01-09T02:31:24.161Z,2.00
2019-01-09T02:33:52.842Z,2.00
2019-01-09T02:36:21.251Z,1.90
2019-01-09T02:38:49.689Z,1.70
2019-01-09T02:41:18.089Z,1.60
2019-01-09T02:43:46.548Z,1.60
2019-01-09T02:46:15.006Z,1.60
2019-01-09T02:48:43.438Z,1.60
2019-01-09T02:51:11.863Z,1.60
2019-01-09T02:53:40.295Z,1.60
2019-01-09T02:56:08.730Z,1.60
2019-01-09T02:58:37.183Z,1.50
2019-01-09T03:01:05.614Z,1.50
2019-01-09T03:03:34.031Z,1.60
2019-01-09T03:06:02.449Z,1.70
2019-01-09T03:08:30.856Z,1.70
2019-01-09T03:10:59.303Z,1.80
2019-01-09T03:13:27.755Z,1.80
2019-01-09T03:15:56.182Z,1.80
2019-01-09T03:18:24.611Z,1.80
2019-01-09T03:20:53.096Z,1.90
2019-01-09T03:23:25.875Z,1.80
2019-01-09T03:25:54.344Z,1.90
2019-01-09T03:28:22.778Z,1.90
2019-01-09T03:30:51.192Z,1.90
2019-01-09T03:33:19.627Z,2.00
2019-01-09T03:35:48.036Z,2.00
2019-01-09T03:38:16.471Z,2.00
2019-01-09T03:40:44.915Z,2.00
2019-01-09T03:43:13.355Z,2.00
2019-01-09T03:45:41.760Z,2.00
2019-01-09T03:48:10.195Z,2.00
2019-01-09T03:50:38.611Z,2.00
2019-01-09T03:53:07.043Z,2.00
2019-01-09T03:55:35.459Z,2.00
2019-01-09T03:58:04.106Z,1.90
2019-01-09T04:00:32.563Z,1.90
2019-01-09T04:03:01.007Z,1.90
2019-01-09T04:05:29.423Z,1.90
2019-01-09T04:07:57.828Z,1.90
2019-01-09T04:10:26.255Z,1.80
2019-01-09T04:12:54.691Z,1.90
2019-01-09T04:15:23.122Z,1.90
2019-01-09T04:17:51.527Z,1.90
2019-01-09T04:20:19.954Z,2.00
2019-01-09T04:22:48.363Z,2.00
2019-01-09T04:25:18.424Z,2.00
2019-01-09T04:27:46.904Z,2.00
2019-01-09T04:30:15.413Z,2.00
2019-01-09T04:32:43.842Z,2.00
2019-01-09T04:35:12.259Z,2.00
2019-01-09T04:37:40.681Z,2.10
2019-01-09T04:40:09.074Z,2.10
2019-01-09T04:42:37.495Z,2.10
2019-01-09T04:45:07.161Z,2.10
2019-01-09T04:47:35.594Z,2.10
2019-01-09T04:50:05.276Z,2.10
2019-01-09T04:52:33.764Z,2.10
2019-01-09T04:55:02.422Z,2.20
2019-01-09T04:57:30.850Z,2.10
2019-01-09T04:59:59.291Z,2.10
2019-01-09T05:02:27.698Z,2.10
2019-01-09T05:04:56.176Z,2.10
2019-01-09T05:07:24.651Z,2.00
2019-01-09T05:09:56.501Z,2.00
2019-01-09T05:12:24.904Z,2.00
2019-01-09T05:14:53.477Z,1.60
2019-01-09T05:17:21.915Z,1.30
2019-01-09T05:19:50.416Z,1.10
2019-01-09T05:22:18.869Z,1.00
2019-01-09T05:24:47.511Z,1.10
2019-01-09T05:27:16.023Z,1.10
2019-01-09T05:29:44.504Z,1.10
2019-01-09T05:32:12.935Z,1.10
2019-01-09T05:34:41.364Z,1.10
2019-01-09T05:37:09.996Z,1.00
2019-01-09T05:39:39.761Z,1.00
2019-01-09T05:42:08.784Z,1.00
2019-01-09T05:44:37.222Z,1.00
2019-01-09T05:47:05.703Z,1.00
2019-01-09T05:49:34.152Z,1.00
2019-01-09T05:52:02.582Z,0.90
2019-01-09T05:54:31.012Z,0.90
2019-01-09T05:56:59.452Z,1.00
2019-01-09T05:59:27.866Z,1.10
2019-01-09T06:01:56.319Z,1.10
2019-01-09T06:04:24.810Z,1.10
2019-01-09T06:06:53.263Z,1.20
2019-01-09T06:09:21.667Z,1.20
2019-01-09T06:11:50.147Z,1.30
2019-01-09T06:14:18.570Z,1.20
2019-01-09T06:16:47.040Z,1.20
2019-01-09T06:19:15.617Z,1.30
2019-01-09T06:21:44.018Z,1.30
2019-01-09T06:24:12.508Z,1.30
2019-01-09T06:26:44.324Z,1.30
2019-01-09T06:29:12.772Z,1.30
2019-01-09T06:31:41.228Z,1.20
2019-01-09T06:34:09.844Z,1.20
2019-01-09T06:36:38.395Z,1.20
2019-01-09T06:39:06.880Z,1.20
2019-01-09T06:41:39.416Z,1.20
2019-01-09T06:44:10.858Z,1.30
2019-01-09T06:46:39.263Z,1.30
2019-01-09T06:49:07.938Z,1.30
2019-01-09T06:51:36.362Z,1.20
2019-01-09T06:54:04.864Z,1.20
2019-01-09T06:56:37.433Z,1.20
2019-01-09T06:59:06.003Z,1.10
2019-01-09T07:01:34.688Z,1.10
2019-01-09T07:04:05.200Z,1.00
2019-01-09T07:06:33.377Z,1.00
2019-01-09T07:09:03.980Z,1.00
2019-01-09T07:11:32.164Z,1.00
2019-01-09T07:14:04.127Z,1.00
2019-01-09T07:16:32.561Z,1.00
2019-01-09T07:19:01.003Z,1.00
2019-01-09T07:21:29.428Z,0.90
2019-01-09T07:23:57.954Z,0.90
2019-01-09T07:26:26.716Z,0.90
2019-01-09T07:28:55.193Z,0.80
2019-01-09T07:31:23.629Z,0.80
2019-01-09T07:33:53.675Z,0.90
2019-01-09T07:36:22.227Z,0.90
2019-01-09T07:38:50.838Z,0.90
2019-01-09T07:41:19.339Z,0.90
2019-01-09T07:43:47.751Z,0.80
2019-01-09T07:46:16.266Z,0.80
2019-01-09T07:48:44.871Z,0.80
2019-01-09T07:51:13.351Z,0.80
2019-01-09T07:53:41.793Z,0.80
2019-01-09T07:56:10.284Z,0.80
2019-01-09T07:58:38.696Z,0.80
2019-01-09T08:01:07.138Z,0.90
2019-01-09T08:03:35.547Z,0.90
2019-01-09T08:06:04.017Z,0.90
2019-01-09T08:08:32.433Z,0.90
2019-01-09T08:11:00.877Z,0.80
2019-01-09T08:13:45.743Z,0.80
2019-01-09T08:16:09.704Z,0.80
2019-01-09T08:18:38.511Z,0.80
2019-01-09T08:21:08.421Z,0.80
2019-01-09T08:23:37.143Z,0.80
2019-01-09T08:26:05.892Z,0.80
2019-01-09T08:28:38.299Z,0.80
2019-01-09T08:31:09.436Z,0.80
2019-01-09T08:33:38.027Z,0.80
2019-01-09T08:36:06.675Z,0.70
2019-01-09T08:38:35.093Z,0.60
2019-01-09T08:41:03.763Z,0.70
2019-01-09T08:43:36.452Z,0.70
2019-01-09T08:46:08.397Z,0.70
2019-01-09T08:48:41.350Z,0.70
2019-01-09T08:51:10.318Z,0.70
2019-01-09T08:53:38.734Z,0.70
2019-01-09T08:56:07.170Z,0.80
2019-01-09T08:58:39.541Z,0.80
2019-01-09T09:01:07.945Z,0.80
2019-01-09T09:03:36.410Z,0.90
2019-01-09T09:06:04.820Z,0.80
2019-01-09T09:08:34.066Z,0.80
2019-01-09T09:11:02.771Z,0.90
2019-01-09T09:13:36.384Z,0.80
2019-01-09T09:16:06.179Z,0.90
2019-01-09T09:18:35.157Z,0.90
2019-01-09T09:21:03.864Z,1.00
2019-01-09T09:23:32.278Z,1.10
2019-01-09T09:26:00.714Z,1.20
2019-01-09T09:28:29.154Z,1.20
2019-01-09T09:30:57.582Z,1.20
2019-01-09T09:33:26.106Z,1.20
2019-01-09T09:35:54.593Z,1.20
2019-01-09T09:38:23.022Z,1.20
2019-01-09T09:40:51.439Z,1.20
2019-01-09T09:43:19.854Z,1.30
2019-01-09T09:45:48.275Z,1.30
2019-01-09T09:48:16.714Z,1.40
2019-01-09T09:50:45.118Z,1.50
2019-01-09T09:53:13.551Z,1.50
2019-01-09T09:55:41.998Z,1.40
2019-01-09T09:58:10.429Z,1.50
2019-01-09T10:00:38.885Z,1.60
2019-01-09T10:03:07.289Z,1.50
2019-01-09T10:05:36.086Z,1.50
2019-01-09T10:08:04.609Z,1.50
2019-01-09T10:10:33.111Z,1.50
2019-01-09T10:13:01.539Z,1.60
2019-01-09T10:15:29.960Z,1.60
2019-01-09T10:17:58.399Z,1.50
2019-01-09T10:20:26.877Z,1.50
2019-01-09T10:22:55.314Z,1.50
2019-01-09T10:25:23.741Z,1.50
2019-01-09T10:27:52.235Z,1.40
2019-01-09T10:30:25.188Z,1.50
2019-01-09T10:32:53.604Z,1.40
2019-01-09T10:35:22.055Z,1.30
2019-01-09T10:37:50.527Z,1.30
2019-01-09T10:40:20.983Z,1.30
2019-01-09T10:42:49.566Z,1.30
2019-01-09T10:45:20.623Z,1.30
2019-01-09T10:47:49.062Z,1.30
2019-01-09T10:50:18.297Z,1.30
2019-01-09T10:52:47.177Z,1.30
2019-01-09T10:55:18.636Z,1.40
2019-01-09T10:57:47.206Z,1.50
2019-01-09T11:00:18.551Z,1.50
2019-01-09T11:02:47.496Z,1.50
2019-01-09T11:05:16.544Z,1.40
2019-01-09T11:07:44.995Z,1.60
2019-01-09T11:10:18.385Z,1.60
2019-01-09T11:12:46.870Z,1.80
2019-01-09T11:15:15.951Z,1.80
2019-01-09T11:17:44.431Z,1.80
2019-01-09T11:20:15.701Z,1.80
2019-01-09T11:22:44.183Z,1.80
2019-01-09T11:25:18.131Z,1.70
2019-01-09T11:27:46.548Z,1.80
2019-01-09T11:30:17.189Z,1.70
2019-01-09T11:32:45.639Z,1.70
2019-01-09T11:35:16.617Z,1.60
2019-01-09T11:37:45.507Z,1.60
2019-01-09T11:40:19.264Z,1.70
2019-01-09T11:42:47.672Z,1.60
2019-01-09T11:45:18.523Z,1.60
2019-01-09T11:47:50.939Z,1.60
2019-01-09T11:50:19.336Z,1.60
2019-01-09T11:52:47.941Z,1.60
2019-01-09T11:55:16.383Z,1.70
2019-01-09T11:57:45.085Z,1.80
2019-01-09T12:00:25.134Z,1.80
2019-01-09T12:02:53.917Z,1.80
2019-01-09T12:05:22.446Z,1.90
2019-01-09T12:07:50.886Z,1.80
2019-01-09T12:10:30.039Z,1.90
2019-01-09T12:12:52.046Z,2.00
2019-01-09T12:15:20.575Z,2.00
2019-01-09T12:17:52.547Z,2.00
2019-01-09T12:20:25.397Z,2.10
2019-01-09T12:22:53.863Z,2.10
2019-01-09T12:25:22.291Z,2.10
2019-01-09T12:27:50.782Z,2.00
2019-01-09T12:30:25.045Z,2.00
2019-01-09T12:32:53.718Z,2.10
2019-01-09T12:35:22.127Z,2.10
2019-01-09T12:37:50.934Z,2.00
2019-01-09T12:40:19.805Z,1.90
2019-01-09T12:42:48.239Z,1.80
2019-01-09T12:45:17.684Z,1.80
2019-01-09T12:47:50.350Z,1.90
2019-01-09T12:50:24.096Z,1.80
2019-01-09T12:52:52.859Z,1.80
2019-01-09T12:55:21.337Z,1.60
2019-01-09T12:57:49.840Z,1.40
2019-01-09T13:00:21.366Z,1.20
2019-01-09T13:02:54.626Z,1.10
2019-01-09T13:05:26.792Z,1.20
2019-01-09T13:07:55.211Z,1.10
2019-01-09T13:10:23.642Z,1.10
2019-01-09T13:12:52.905Z,1.10
2019-01-09T13:15:22.542Z,1.20
2019-01-09T13:17:50.911Z,1.10
2019-01-09T13:20:22.957Z,1.00
2019-01-09T13:22:51.464Z,0.90
2019-01-09T13:25:19.905Z,0.90
2019-01-09T13:27:48.388Z,0.90
2019-01-09T13:30:19.267Z,0.90
2019-01-09T13:32:47.742Z,0.80
2019-01-09T13:35:17.236Z,0.80
2019-01-09T13:37:46.067Z,0.80
2019-01-09T13:40:16.598Z,0.70
2019-01-09T13:42:45.012Z,0.60
2019-01-09T13:45:16.176Z,0.50
2019-01-09T13:47:44.855Z,0.40
2019-01-09T13:50:22.182Z,0.30
2019-01-09T13:52:50.587Z,0.30
2019-01-09T13:55:19.023Z,0.30
2019-01-09T13:57:47.426Z,0.20
2019-01-09T14:00:20.599Z,0.30
2019-01-09T14:02:49.376Z,0.20
2019-01-09T14:05:17.892Z,0.20
2019-01-09T14:07:47.022Z,0.30
2019-01-09T14:10:18.571Z,0.30
2019-01-09T14:12:46.976Z,0.30
2019-01-09T14:15:18.351Z,0.30
2019-01-09T14:17:47.602Z,0.30
2019-01-09T14:20:16.375Z,0.30
2019-01-09T14:22:46.732Z,0.20
2019-01-09T14:25:16.938Z,0.30
2019-01-09T14:27:45.627Z,0.30
2019-01-09T14:30:19.395Z,0.20
2019-01-09T14:32:47.826Z,0.20
2019-01-09T14:35:16.284Z,0.20
2019-01-09T14:37:44.745Z,0.20
2019-01-09T14:40:18.186Z,0.20
2019-01-09T14:42:46.660Z,0.20
2019-01-09T14:45:16.696Z,0.20
2019-01-09T14:47:45.198Z,0.20
2019-01-09T14:50:27.863Z,0.20
2019-01-09T14:52:56.356Z,0.20
2019-01-09T14:55:44.106Z,0.20
2019-01-09T14:58:12.590Z,0.20
2019-01-09T15:00:41.000Z,0.20
2019-01-09T15:03:09.411Z,0.20
2019-01-09T15:05:37.939Z,0.20
2019-01-09T15:08:06.429Z,0.20
2019-01-09T15:10:34.943Z,0.20
2019-01-09T15:13:03.376Z,0.20
2019-01-09T15:15:31.879Z,0.10
2019-01-09T15:18:00.291Z,0.20
2019-01-09T15:20:28.712Z,0.20
2019-01-09T15:22:57.157Z,0.10
2019-01-09T15:25:25.709Z,0.10
2019-01-09T15:27:54.461Z,0.10
2019-01-09T15:30:27.946Z,0.10
2019-01-09T15:32:56.396Z,0.10
2019-01-09T15:35:25.074Z,0.10
2019-01-09T15:37:53.592Z,0.10
2019-01-09T15:40:31.448Z,0.10
2019-01-09T15:43:00.812Z,0.10
2019-01-09T15:45:29.214Z,0.10
2019-01-09T15:47:57.719Z,0.10
2019-01-09T15:50:27.874Z,0.10
2019-01-09T15:52:56.315Z,0.10
2019-01-09T15:55:25.128Z,0.10
2019-01-09T15:57:54.582Z,0.10
2019-01-09T16:00:38.286Z,0.10
2019-01-09T16:03:07.159Z,0.10
2019-01-09T16:05:35.741Z,0.10
2019-01-09T16:08:04.615Z,0.10
2019-01-09T16:10:33.324Z,0.10
2019-01-09T16:13:01.727Z,0.00
2019-01-09T16:15:30.166Z,0.00
2019-01-09T16:17:58.763Z,0.10
2019-01-09T16:20:27.199Z,0.00
2019-01-09T16:22:55.603Z,0.10
2019-01-09T16:25:24.052Z,0.00
2019-01-09T16:27:52.483Z,0.00
2019-01-09T16:30:49.891Z,0.00
2019-01-09T16:33:18.329Z,0.00
2019-01-09T16:35:46.766Z,0.00
2019-01-09T16:38:15.202Z,0.00
2019-01-09T16:40:43.657Z,0.00
2019-01-09T16:43:12.067Z,0.00
2019-01-09T16:45:40.474Z,0.00
2019-01-09T16:48:08.902Z,0.10
2019-01-09T16:50:37.316Z,0.10
2019-01-09T16:53:05.762Z,0.10
2019-01-09T16:55:34.424Z,0.10
2019-01-09T16:58:03.003Z,0.10
2019-01-09T17:00:34.839Z,0.10
2019-01-09T17:03:03.251Z,0.10
2019-01-09T17:05:31.673Z,0.10
2019-01-09T17:08:00.183Z,0.10
2019-01-09T17:10:32.796Z,0.10
2019-01-09T17:12:58.858Z,0.10
2019-01-09T17:15:27.501Z,0.10
2019-01-09T17:17:55.929Z,0.10
2019-01-09T17:20:27.286Z,0.10
2019-01-09T17:22:56.073Z,0.10
2019-01-09T17:25:25.156Z,0.10
2019-01-09T17:27:53.739Z,0.10
2019-01-09T17:30:32.064Z,0.10
2019-01-09T17:33:00.549Z,0.10
2019-01-09T17:35:28.983Z,0.10
2019-01-09T17:38:00.591Z,0.10
2019-01-09T17:40:29.307Z,0.10
2019-01-09T17:42:57.712Z,0.10
2019-01-09T17:45:26.150Z,0.10
2019-01-09T17:47:54.542Z,0.10
2019-01-09T17:50:31.791Z,0.10
2019-01-09T17:53:00.203Z,0.20
2019-01-09T17:55:28.819Z,0.10
2019-01-09T17:57:57.257Z,0.20
2019-01-09T18:00:34.610Z,0.20
2019-01-09T18:03:03.458Z,0.20
2019-01-09T18:05:32.289Z,0.20
2019-01-09T18:08:00.714Z,0.20
2019-01-09T18:10:29.204Z,0.20
2019-01-09T18:12:58.080Z,0.20
2019-01-09T18:15:26.512Z,0.20
2019-01-09T18:17:55.015Z,0.10
2019-01-09T18:20:23.966Z,0.20
2019-01-09T18:22:56.817Z,0.10
2019-01-09T18:25:28.182Z,0.10
2019-01-09T18:27:56.659Z,0.10
2019-01-09T18:30:39.995Z,0.10
2019-01-09T18:33:11.811Z,0.10
2019-01-09T18:36:01.262Z,0.10
2019-01-09T18:38:41.111Z,0.10
2019-01-09T18:41:38.122Z,0.10
2019-01-09T18:44:26.851Z,0.10
2019-01-09T18:47:04.016Z,0.20
2019-01-09T18:49:51.764Z,0.10
2019-01-09T18:52:28.952Z,0.10
2019-01-09T18:55:02.036Z,0.10
2019-01-09T18:57:30.463Z,0.10
2019-01-09T18:59:58.932Z,0.10
2019-01-09T19:02:27.362Z,0.10
2019-01-09T19:04:55.811Z,0.10
2019-01-09T19:07:24.280Z,0.10
2019-01-09T19:09:55.806Z,0.20
2019-01-09T19:12:24.222Z,0.10
2019-01-09T19:14:52.658Z,0.20
2019-01-09T19:17:21.347Z,0.20
2019-01-09T19:19:50.174Z,0.20
2019-01-09T19:22:18.721Z,0.20
2019-01-09T19:24:47.158Z,0.20
2019-01-09T19:27:15.567Z,0.20
2019-01-09T19:29:44.082Z,0.30
2019-01-09T19:32:12.562Z,0.20
2019-01-09T19:34:41.009Z,0.20
2019-01-09T19:37:09.987Z,0.30
2019-01-09T19:39:38.394Z,0.30
2019-01-09T19:42:06.844Z,0.20
2019-01-09T19:44:35.251Z,0.20
2019-01-09T19:47:03.655Z,0.30
2019-01-09T19:49:32.080Z,0.20
2019-01-09T19:52:00.508Z,0.30
2019-01-09T19:54:33.125Z,0.30
2019-01-09T19:57:01.550Z,0.30
2019-01-09T19:59:29.972Z,0.30
2019-01-09T20:01:58.575Z,0.30
2019-01-09T20:04:27.056Z,0.30
2019-01-09T20:06:55.635Z,0.30
2019-01-09T20:09:24.114Z,0.30
2019-01-09T20:11:52.810Z,0.30
2019-01-09T20:14:21.315Z,0.20
2019-01-09T20:16:49.790Z,0.20
2019-01-09T20:19:18.639Z,0.30
2019-01-09T20:21:47.189Z,0.30
2019-01-09T20:24:15.689Z,0.20
2019-01-09T20:26:44.232Z,0.30
2019-01-09T20:29:12.899Z,0.30
2019-01-09T20:31:41.430Z,0.30
2019-01-09T20:34:09.905Z,0.30
2019-01-09T20:36:38.379Z,0.30
2019-01-09T20:39:07.939Z,0.30
2019-01-09T20:41:36.371Z,0.30
2019-01-09T20:44:05.756Z,0.30
2019-01-09T20:46:34.159Z,0.30
2019-01-09T20:49:02.650Z,0.30
2019-01-09T20:51:31.077Z,0.30
2019-01-09T20:53:59.781Z,0.30
2019-01-09T20:56:28.187Z,0.40
2019-01-09T20:58:56.650Z,0.40
2019-01-09T21:01:25.108Z,0.30
2019-01-09T21:03:53.982Z,0.40
2019-01-09T21:06:24.129Z,0.40
2019-01-09T21:08:59.547Z,0.40
2019-01-09T21:11:22.807Z,0.40
2019-01-09T21:13:51.380Z,0.40
2019-01-09T21:16:19.808Z,0.40
2019-01-09T21:18:48.215Z,0.40
2019-01-09T21:21:16.644Z,0.40
2019-01-09T21:23:45.094Z,0.40
2019-01-09T21:26:13.498Z,0.40
2019-01-09T21:28:41.915Z,0.50
2019-01-09T21:31:10.345Z,0.50
2019-01-09T21:33:38.779Z,0.50
2019-01-09T21:36:07.244Z,0.50
2019-01-09T21:38:35.699Z,0.50
2019-01-09T21:41:04.415Z,0.50
2019-01-09T21:43:32.931Z,0.50
2019-01-09T21:46:01.509Z,0.50
2019-01-09T21:48:29.956Z,0.50
2019-01-09T21:50:58.395Z,0.50
2019-01-09T21:53:26.901Z,0.50
2019-01-09T21:55:55.399Z,0.60
2019-01-09T21:58:23.803Z,0.60
2019-01-09T22:00:52.249Z,0.60
2019-01-09T22:03:20.694Z,0.60
2019-01-09T22:05:49.464Z,0.50
2019-01-09T22:08:18.208Z,0.50
2019-01-09T22:10:46.683Z,0.50
2019-01-09T22:13:15.312Z,0.60
2019-01-09T22:15:44.001Z,0.60
2019-01-09T22:18:12.478Z,0.70
2019-01-09T22:20:41.006Z,0.70
2019-01-09T22:23:09.555Z,0.70
2019-01-09T22:25:37.954Z,0.60
2019-01-09T22:28:06.436Z,0.60
2019-01-09T22:30:35.191Z,0.60
2019-01-09T22:33:04.166Z,0.60
2019-01-09T22:35:41.144Z,0.60
2019-01-09T22:38:02.990Z,0.60
2019-01-09T22:40:31.415Z,0.60
2019-01-09T22:43:02.884Z,0.60
2019-01-09T22:45:31.291Z,0.50
2019-01-09T22:47:59.909Z,0.50
2019-01-09T22:50:28.595Z,0.50
2019-01-09T22:52:57.034Z,0.50
2019-01-09T22:55:25.664Z,0.50
2019-01-09T22:57:57.132Z,0.50
2019-01-09T23:00:32.559Z,0.60
2019-01-09T23:03:01.935Z,0.60
2019-01-09T23:05:30.521Z,0.60
2019-01-09T23:07:59.289Z,0.50
2019-01-09T23:10:27.811Z,0.50
2019-01-09T23:13:00.717Z,0.60
2019-01-09T23:15:29.355Z,0.50
2019-01-09T23:17:57.814Z,0.50
2019-01-09T23:20:27.462Z,0.50
2019-01-09T23:22:55.898Z,0.50
2019-01-09T23:25:24.310Z,0.50
2019-01-09T23:27:52.743Z,0.50
2019-01-09T23:30:25.411Z,0.50
2019-01-09T23:32:53.862Z,0.50
2019-01-09T23:35:22.820Z,0.50
2019-01-09T23:37:51.250Z,0.50
2019-01-09T23:40:20.304Z,0.50
2019-01-09T23:42:48.732Z,0.50
2019-01-09T23:45:20.704Z,0.50
2019-01-09T23:47:49.154Z,0.50
2019-01-09T23:50:17.592Z,0.50
2019-01-09T23:52:46.028Z,0.50
2019-01-09T23:55:14.743Z,0.50
2019-01-09T23:58:02.501Z,0.50
